.
WxDataArchive / Data Records for 2012-01-23
2012-01-22 January 2012 2012-01-24

Data Records for Monday, 23 January 2012

Time	Temp	Chill	HIndex	Humid	Dewpt	 Wind 	HiWind	WindDir	Rain 	Barom 
-----	----	-----	------	-----	-----	------	------	-------	-----	----- 
00:00	38.5	38.5	38.5	97	37.7	1	4	90	0.00	29.723 
00:05	38.8	38.8	38.8	97	38.0	2	4	90	0.00	29.723 
00:10	39.2	39.2	39.2	97	38.4	1	4	135	0.01	29.723 
00:15	39.5	39.5	39.5	97	38.7	1	4	135	0.00	29.710 
00:20	39.9	39.9	39.9	97	39.1	2	5	90	0.00	29.710 
00:25	40.5	40.5	40.5	97	39.7	2	5	90	0.01	29.710 
00:30	40.9	40.9	40.9	97	40.1	2	7	90	0.00	29.696 
00:35	41.3	41.3	41.3	97	40.5	2	7	90	0.01	29.696 
00:40	41.5	41.5	41.5	97	40.7	2	5	90	0.01	29.696 
00:45	41.6	41.6	41.6	97	40.8	3	9	90	0.02	29.676 
00:50	41.8	41.8	41.8	97	41.0	2	6	90	0.01	29.676 
00:55	41.8	41.8	41.8	97	41.0	2	4	68	0.00	29.676 
01:00	41.9	41.9	41.9	97	41.1	2	5	90	0.01	29.666 
01:05	41.9	41.9	41.9	97	41.1	2	7	112	0.01	29.666 
01:10	42.1	42.1	42.1	97	41.3	2	9	112	0.01	29.666 
01:15	42.2	42.2	42.2	97	41.4	2	6	90	0.00	29.643 
01:20	42.3	42.3	42.3	97	41.5	2	7	112	0.01	29.643 
01:25	42.5	42.5	42.5	97	41.7	2	7	68	0.00	29.643 
01:30	42.6	42.6	42.6	97	41.8	3	7	90	0.01	29.617 
01:35	42.8	42.8	42.8	97	42.0	3	5	112	0.01	29.617 
01:40	42.9	42.9	42.9	97	42.1	3	10	90	0.00	29.617 
01:45	43.1	43.1	43.1	97	42.3	3	7	90	0.01	29.611 
01:50	43.1	43.1	43.1	97	42.3	3	7	90	0.00	29.611 
01:55	43.2	43.2	43.2	97	42.4	2	7	112	0.01	29.611 
02:00	43.2	43.2	43.2	97	42.4	3	9	90	0.00	29.591 
02:05	43.3	43.3	43.3	97	42.5	3	7	112	0.01	29.591 
02:10	43.5	43.5	43.5	97	42.7	3	12	90	0.00	29.591 
02:15	43.6	43.6	43.6	97	42.8	2	8	112	0.01	29.584 
02:20	43.8	43.8	43.8	97	43.0	3	7	90	0.00	29.584 
02:25	43.9	43.9	43.9	97	43.1	3	6	90	0.01	29.584 
02:30	44.1	42.1	44.1	97	43.3	4	10	90	0.08	29.584 
02:35	44.1	42.1	44.1	97	43.3	4	9	90	0.04	29.584 
02:40	44.2	42.2	44.2	97	43.4	4	13	112	0.00	29.584 
02:45	44.5	44.5	44.5	97	43.7	3	9	90	0.01	29.564 
02:50	44.6	44.6	44.6	97	43.8	3	11	90	0.00	29.564 
02:55	44.8	44.8	44.8	97	44.0	3	7	112	0.01	29.564 
03:00	45.1	45.1	45.1	97	44.3	3	8	90	0.01	29.564 
03:05	45.2	43.3	45.2	97	44.4	4	10	112	0.00	29.564 
03:10	45.4	45.4	45.4	97	44.6	3	7	90	0.01	29.564 
03:15	45.4	43.6	45.4	97	44.6	4	9	90	0.00	29.569 
03:20	45.2	45.2	45.2	97	44.4	2	10	112	0.03	29.569 
03:25	45.4	45.4	45.4	97	44.6	3	11	90	0.01	29.569 
03:30	45.8	44.0	45.8	97	45.0	4	14	90	0.00	29.611 
03:35	45.8	45.8	45.8	97	45.0	2	6	45	0.00	29.611 
03:40	45.8	45.8	45.8	97	45.0	2	5	315	0.00	29.611 
03:45	45.8	45.8	45.8	97	45.0	2	6	225	0.00	29.597 
03:50	45.7	45.7	45.7	97	44.9	1	5	270	0.00	29.597 
03:55	45.7	45.7	45.7	97	44.9	2	7	90	0.00	29.597 
04:00	45.5	45.5	45.5	97	44.7	1	6	0	0.00	29.590 
04:05	45.5	45.5	45.5	96	44.4	1	3	225	0.00	29.590 
04:10	45.4	45.4	45.4	96	44.3	0	2	180	0.00	29.590 
04:15	45.4	45.4	45.4	97	44.6	1	3	180	0.00	29.587 
04:20	45.7	45.7	45.7	97	44.9	1	3	270	0.00	29.587 
04:25	45.7	45.7	45.7	97	44.9	1	4	22	0.00	29.587 
04:30	45.4	45.4	45.4	96	44.3	0	2	22	0.00	29.580 
04:35	45.5	45.5	45.5	97	44.7	1	3	45	0.00	29.580 
04:40	45.8	45.8	45.8	97	45.0	3	7	112	0.01	29.580 
04:45	46.0	46.0	46.0	97	45.2	1	4	90	0.00	29.559 
04:50	46.1	46.1	46.1	97	45.3	2	6	90	0.00	29.559 
04:55	46.1	46.1	46.1	97	45.3	1	3	135	0.00	29.559 
05:00	45.8	45.8	45.8	97	45.0	2	5	112	0.00	29.536 
05:05	45.7	45.7	45.7	96	44.6	2	6	112	0.00	29.536 
05:10	45.2	45.2	45.2	96	44.1	3	7	90	0.01	29.536 
05:15	44.8	44.8	44.8	96	43.7	1	4	90	0.00	29.544 
05:20	44.6	44.6	44.6	96	43.5	2	5	90	0.00	29.544 
05:25	44.8	44.8	44.8	97	44.0	2	4	90	0.00	29.544 
05:30	44.9	44.9	44.9	97	44.1	2	6	112	0.00	29.518 
05:35	44.9	44.9	44.9	97	44.1	1	3	112	0.00	29.518 
05:40	44.8	44.8	44.8	97	44.0	2	5	112	0.00	29.518 
05:45	44.6	44.6	44.6	96	43.5	2	5	112	0.00	29.516 
05:50	44.6	44.6	44.6	97	43.8	2	5	90	0.00	29.516 
05:55	44.6	44.6	44.6	96	43.5	2	5	90	0.00	29.516 
06:00	44.5	44.5	44.5	96	43.4	2	5	135	0.00	29.512 
06:05	44.5	44.5	44.5	96	43.4	2	6	112	0.00	29.512 
06:10	44.5	44.5	44.5	96	43.4	2	10	112	0.00	29.512 
06:15	44.3	44.3	44.3	96	43.2	1	4	90	0.00	29.499 
06:20	44.2	44.2	44.2	96	43.1	2	10	112	0.00	29.499 
06:25	44.2	44.2	44.2	96	43.1	2	4	90	0.00	29.499 
06:30	44.1	44.1	44.1	96	43.0	2	5	90	0.00	29.504 
06:35	44.1	44.1	44.1	96	43.0	2	6	135	0.00	29.504 
06:40	44.1	44.1	44.1	96	43.0	2	6	90	0.00	29.504 
06:45	44.1	44.1	44.1	96	43.0	2	6	135	0.00	29.504 
06:50	44.1	44.1	44.1	96	43.0	3	5	112	0.00	29.504 
06:55	44.2	44.2	44.2	96	43.1	2	6	112	0.00	29.504 
07:00	44.2	44.2	44.2	96	43.1	2	5	112	0.00	29.503 
07:05	44.2	44.2	44.2	96	43.1	1	5	135	0.00	29.503 
07:10	44.3	44.3	44.3	96	43.2	2	6	112	0.00	29.503 
07:15	44.5	44.5	44.5	96	43.4	2	7	112	0.00	29.502 
07:20	44.6	44.6	44.6	96	43.5	3	8	112	0.00	29.502 
07:25	44.6	44.6	44.6	95	43.3	2	9	112	0.00	29.502 
07:30	44.6	44.6	44.6	95	43.3	2	7	90	0.00	29.501 
07:35	44.5	44.5	44.5	95	43.2	2	5	90	0.00	29.501 
07:40	44.5	44.5	44.5	95	43.2	2	5	90	0.00	29.501 
07:45	44.3	44.3	44.3	94	42.7	2	6	112	0.00	29.497 
07:50	44.5	44.5	44.5	94	42.9	2	7	90	0.00	29.497 
07:55	44.2	44.2	44.2	94	42.6	1	5	112	0.00	29.497 
08:00	44.2	44.2	44.2	94	42.6	1	5	90	0.00	29.503 
08:05	44.2	44.2	44.2	94	42.6	1	4	112	0.00	29.503 
08:10	44.3	44.3	44.3	94	42.7	2	6	68	0.00	29.503 
08:15	44.2	44.2	44.2	94	42.6	1	4	135	0.00	29.502 
08:20	44.2	44.2	44.2	94	42.6	2	5	90	0.00	29.502 
08:25	44.2	44.2	44.2	94	42.6	1	6	90	0.00	29.502 
08:30	44.3	44.3	44.3	93	42.4	2	6	90	0.00	29.501 
08:35	44.3	44.3	44.3	93	42.4	1	4	90	0.00	29.501 
08:40	44.5	44.5	44.5	94	42.9	2	7	90	0.00	29.501 
08:45	44.6	44.6	44.6	93	42.7	2	5	90	0.00	29.501 
08:50	44.9	44.9	44.9	93	43.0	1	5	90	0.00	29.501 
08:55	44.9	44.9	44.9	93	43.0	2	6	112	0.00	29.501 
09:00	45.4	45.4	45.4	93	43.5	3	8	90	0.00	29.501 
09:05	45.5	45.5	45.5	93	43.6	2	5	68	0.00	29.501 
09:10	45.7	45.7	45.7	92	43.5	2	6	90	0.00	29.501 
09:15	45.8	45.8	45.8	92	43.6	2	7	90	0.00	29.498 
09:20	46.1	46.1	46.1	92	43.9	1	5	68	0.00	29.498 
09:25	46.2	46.2	46.2	92	44.0	2	9	90	0.00	29.498 
09:30	46.4	46.4	46.4	92	44.2	2	7	90	0.00	29.500 
09:35	46.5	46.5	46.5	92	44.3	2	5	90	0.00	29.500 
09:40	46.7	46.7	46.7	92	44.5	2	6	90	0.00	29.500 
09:45	46.8	46.8	46.8	92	44.6	2	5	90	0.00	29.496 
09:50	47.0	47.0	47.0	91	44.5	1	6	68	0.00	29.496 
09:55	47.1	47.1	47.1	91	44.6	2	6	112	0.00	29.496 
10:00	47.3	47.3	47.3	91	44.8	2	7	22	0.00	29.493 
10:05	47.6	47.6	47.6	91	45.1	2	5	90	0.00	29.493 
10:10	47.7	47.7	47.7	91	45.2	2	5	90	0.00	29.493 
10:15	48.0	48.0	48.0	91	45.5	2	6	90	0.00	29.488 
10:20	48.3	48.3	48.3	90	45.5	2	5	90	0.00	29.488 
10:25	48.5	48.5	48.5	90	45.7	3	6	90	0.00	29.488 
10:30	48.5	48.5	48.5	90	45.7	2	5	112	0.00	29.483 
10:35	48.5	48.5	48.5	89	45.4	2	5	90	0.00	29.483 
10:40	48.5	48.5	48.5	89	45.4	2	6	68	0.00	29.483 
10:45	48.3	48.3	48.3	90	45.5	2	10	45	0.00	29.482 
10:50	48.2	48.2	48.2	91	45.7	1	5	68	0.00	29.482 
10:55	48.2	48.2	48.2	91	45.7	1	4	68	0.01	29.482 
11:00	48.0	48.0	48.0	92	45.8	1	6	45	0.01	29.485 
11:05	48.0	48.0	48.0	92	45.8	1	4	315	0.00	29.485 
11:10	48.0	48.0	48.0	92	45.8	2	4	270	0.00	29.485 
11:15	48.0	48.0	48.0	93	46.1	1	5	248	0.00	29.491 
11:20	48.0	48.0	48.0	93	46.1	2	7	248	0.00	29.491 
11:25	48.0	48.0	48.0	93	46.1	2	5	248	0.00	29.491 
11:30	48.0	48.0	48.0	93	46.1	2	7	248	0.00	29.485 
11:35	48.0	48.0	48.0	93	46.1	2	7	248	0.00	29.485 
11:40	48.2	48.2	48.2	94	46.6	3	12	248	0.00	29.485 
11:45	48.2	48.2	48.2	94	46.6	3	7	248	0.00	29.482 
11:50	48.2	48.2	48.2	94	46.6	3	10	248	0.00	29.482 
11:55	48.2	48.2	48.2	93	46.3	3	9	248	0.00	29.482 
12:00	48.2	46.8	48.2	93	46.3	4	11	248	0.00	29.492 
12:05	48.2	46.8	48.2	93	46.3	4	12	248	0.00	29.492 
12:10	47.9	45.8	47.9	92	45.7	5	12	248	0.00	29.492 
12:15	47.6	45.4	47.6	91	45.1	5	13	270	0.00	29.501 
12:20	46.7	44.3	46.7	90	43.9	5	11	270	0.00	29.501 
12:25	46.1	43.6	46.1	89	43.0	5	12	248	0.00	29.501 
12:30	45.7	42.5	45.7	88	42.4	6	12	248	0.00	29.511 
12:35	45.4	42.8	45.4	88	42.1	5	14	248	0.01	29.511 
12:40	45.1	42.5	45.1	88	41.8	5	11	270	0.00	29.511 
12:45	44.6	42.6	44.6	88	41.3	4	12	248	0.00	29.522 
12:50	44.3	41.5	44.3	89	41.3	5	11	248	0.00	29.522 
12:55	43.6	39.5	43.6	87	40.0	7	17	248	0.00	29.522 
13:00	43.1	39.5	43.1	86	39.2	6	15	270	0.00	29.542 
13:05	42.5	38.7	42.5	85	38.3	6	15	270	0.00	29.542 
13:10	41.9	39.5	41.9	86	38.0	4	12	270	0.00	29.542 
13:15	41.2	37.2	41.2	86	37.3	6	18	248	0.00	29.559 
13:20	40.6	36.5	40.6	86	36.7	6	15	270	0.00	29.559 
13:25	40.2	36.7	40.2	87	36.6	5	9	270	0.00	29.559 
13:30	39.8	37.1	39.8	87	36.3	4	10	248	0.00	29.567 
13:35	39.3	35.7	39.3	88	36.0	5	13	248	0.00	29.567 
13:40	38.9	33.8	38.9	88	35.7	7	13	270	0.00	29.567 
13:45	38.6	33.5	38.6	88	35.4	7	17	270	0.00	29.579 
13:50	38.3	34.5	38.3	88	35.1	5	13	248	0.00	29.579 
13:55	38.2	33.6	38.2	88	35.0	6	12	270	0.00	29.579 
14:00	37.9	33.3	37.9	89	35.0	6	10	270	0.00	29.589 
14:05	37.6	32.9	37.6	89	34.7	6	15	248	0.00	29.589 
14:10	37.3	32.5	37.3	89	34.4	6	17	248	0.00	29.589 
14:15	37.2	31.8	37.2	89	34.3	7	19	270	0.00	29.596 
14:20	37.0	30.9	37.0	88	33.8	8	15	270	0.00	29.596 
14:25	36.9	31.4	36.9	87	33.4	7	18	270	0.00	29.596 
14:30	36.8	31.3	36.8	87	33.3	7	18	248	0.00	29.600 
14:35	36.6	32.5	36.6	87	33.1	5	16	270	0.00	29.600 
14:40	36.5	30.3	36.5	86	32.7	8	20	248	0.00	29.600 
14:45	36.5	31.6	36.5	86	32.7	6	16	270	0.00	29.613 
14:50	36.2	31.2	36.2	85	32.1	6	17	270	0.00	29.613 
14:55	36.0	31.0	36.0	85	31.9	6	12	270	0.00	29.613 
15:00	35.8	30.8	35.8	85	31.7	6	13	270	0.00	29.626 
15:05	35.6	32.2	35.6	86	31.8	4	11	248	0.00	29.626 
15:10	35.5	30.4	35.5	86	31.7	6	17	248	0.00	29.626 
15:15	35.3	29.5	35.3	86	31.5	7	14	270	0.00	29.635 
15:20	35.3	31.9	35.3	86	31.5	4	12	248	0.00	29.635 
15:25	35.3	31.9	35.3	86	31.5	4	10	248	0.00	29.635 
15:30	35.3	31.9	35.3	86	31.5	4	12	248	0.00	29.645 
15:35	35.2	35.2	35.2	86	31.4	3	7	248	0.00	29.645 
15:40	35.0	31.5	35.0	87	31.5	4	11	270	0.00	29.645 
15:45	34.9	30.5	34.9	87	31.4	5	11	248	0.00	29.649 
15:50	34.7	30.2	34.7	87	31.2	5	15	270	0.00	29.649 
15:55	34.6	29.3	34.6	87	31.1	6	13	248	0.00	29.649 
16:00	34.4	29.9	34.4	86	30.7	5	21	270	0.00	29.656 
16:05	34.4	29.1	34.4	86	30.7	6	21	248	0.00	29.656 
16:10	34.4	30.8	34.4	86	30.7	4	10	248	0.00	29.656 
16:15	34.4	30.8	34.4	87	30.9	4	9	248	0.00	29.664 
16:20	34.3	30.7	34.3	87	30.8	4	12	248	0.00	29.664 
16:25	34.3	34.3	34.3	87	30.8	3	12	248	0.00	29.664 
16:30	34.3	34.3	34.3	88	31.1	3	9	270	0.00	29.677 
16:35	34.1	28.7	34.1	88	30.9	6	15	248	0.00	29.677 
16:40	34.1	28.7	34.1	87	30.6	6	14	248	0.00	29.677 
16:45	34.1	29.5	34.1	87	30.6	5	12	248	0.00	29.684 
16:50	34.1	28.7	34.1	87	30.6	6	15	248	0.00	29.684 
16:55	34.1	29.5	34.1	87	30.6	5	11	270	0.00	29.684 
17:00	34.1	29.5	34.1	86	30.4	5	17	248	0.00	29.695 
17:05	34.1	28.7	34.1	86	30.4	6	14	270	0.00	29.695 
17:10	34.1	28.7	34.1	85	30.1	6	13	248	0.00	29.695 
17:15	34.1	29.5	34.1	85	30.1	5	11	248	0.00	29.710 
17:20	34.1	34.1	34.1	84	29.8	3	10	248	0.00	29.710 
17:25	34.1	28.7	34.1	84	29.8	6	16	270	0.00	29.710 
17:30	34.3	27.6	34.3	83	29.7	8	22	270	0.00	29.721 
17:35	34.3	29.0	34.3	82	29.4	6	14	248	0.00	29.721 
17:40	34.3	29.0	34.3	81	29.1	6	11	270	0.00	29.721 
17:45	34.3	29.8	34.3	81	29.1	5	16	248	0.00	29.728 
17:50	34.3	29.8	34.3	81	29.1	5	11	270	0.00	29.728 
17:55	34.4	28.4	34.4	80	28.9	7	14	270	0.00	29.728 
18:00	34.4	29.9	34.4	80	28.9	5	12	248	0.00	29.741 
18:05	34.4	29.1	34.4	80	28.9	6	14	270	0.00	29.741 
18:10	34.3	29.8	34.3	80	28.8	5	11	270	0.00	29.741 
18:15	34.3	28.3	34.3	79	28.5	7	14	270	0.00	29.756 
18:20	34.3	29.8	34.3	79	28.5	5	15	270	0.00	29.756 
18:25	34.1	34.1	34.1	80	28.6	3	9	270	0.00	29.756 
18:30	34.1	29.5	34.1	79	28.3	5	13	248	0.00	29.769 
18:35	34.0	28.6	34.0	78	27.9	6	15	248	0.00	29.769 
18:40	34.0	30.4	34.0	77	27.6	4	12	248	0.00	29.769 
18:45	33.8	29.2	33.8	77	27.4	5	17	248	0.00	29.776 
18:50	33.8	27.7	33.8	76	27.1	7	16	270	0.00	29.776 
18:55	33.7	28.3	33.7	75	26.6	6	17	248	0.00	29.776 
19:00	33.5	27.3	33.5	74	26.1	7	14	270	0.00	29.789 
19:05	33.5	27.3	33.5	73	25.8	7	18	270	0.00	29.789 
19:10	33.5	28.0	33.5	73	25.8	6	15	270	0.00	29.789 
19:15	33.7	28.3	33.7	73	26.0	6	13	270	0.00	29.797 
19:20	33.7	28.3	33.7	73	26.0	6	13	270	0.00	29.797 
19:25	33.5	28.0	33.5	73	25.8	6	14	270	0.00	29.797 
19:30	33.5	28.8	33.5	74	26.1	5	10	270	0.00	29.814 
19:35	33.5	29.8	33.5	75	26.4	4	10	248	0.00	29.814 
19:40	33.4	28.7	33.4	75	26.3	5	11	270	0.00	29.814 
19:45	33.4	28.7	33.4	76	26.7	5	9	248	0.00	29.823 
19:50	33.4	29.7	33.4	77	27.0	4	11	248	0.00	29.823 
19:55	33.4	28.7	33.4	77	27.0	5	16	270	0.00	29.823 
20:00	33.4	28.7	33.4	77	27.0	5	12	248	0.00	29.828 
20:05	33.5	29.8	33.5	78	27.4	4	10	248	0.00	29.828 
20:10	33.4	28.7	33.4	78	27.3	5	12	248	0.00	29.828 
20:15	33.4	28.7	33.4	78	27.3	5	11	248	0.00	29.835 
20:20	33.4	28.7	33.4	78	27.3	5	12	270	0.00	29.835 
20:25	33.4	27.9	33.4	77	27.0	6	15	270	0.00	29.835 
20:30	33.4	27.9	33.4	76	26.7	6	12	270	0.00	29.837 
20:35	33.4	28.7	33.4	75	26.3	5	12	248	0.00	29.837 
20:40	33.4	27.9	33.4	75	26.3	6	15	248	0.00	29.837 
20:45	33.4	27.9	33.4	74	26.0	6	14	270	0.00	29.849 
20:50	33.2	26.9	33.2	73	25.5	7	15	270	0.00	29.849 
20:55	33.1	28.4	33.1	73	25.4	5	10	270	0.00	29.849 
21:00	33.1	27.5	33.1	72	25.1	6	13	270	0.00	29.852 
21:05	33.1	27.5	33.1	72	25.1	6	13	270	0.00	29.852 
21:10	32.9	28.1	32.9	72	24.9	5	10	270	0.00	29.852 
21:15	32.8	28.0	32.8	72	24.8	5	12	270	0.00	29.862 
21:20	32.8	27.2	32.8	72	24.8	6	13	270	0.00	29.862 
21:25	32.7	27.9	32.7	71	24.4	5	10	270	0.00	29.862 
21:30	32.7	28.9	32.7	72	24.7	4	10	248	0.00	29.869 
21:35	32.5	27.7	32.5	71	24.2	5	11	270	0.00	29.869 
21:40	32.5	27.7	32.5	71	24.2	5	10	270	0.00	29.869 
21:45	32.5	28.7	32.5	71	24.2	4	12	270	0.00	29.877 
21:50	32.5	32.5	32.5	71	24.2	3	7	248	0.00	29.877 
21:55	32.4	32.4	32.4	72	24.4	3	7	248	0.00	29.877 
22:00	32.4	28.5	32.4	71	24.1	4	10	270	0.00	29.883 
22:05	32.4	28.5	32.4	72	24.4	4	6	270	0.00	29.883 
22:10	32.4	32.4	32.4	72	24.4	3	5	270	0.00	29.883 
22:15	32.4	32.4	32.4	73	24.7	3	6	270	0.00	29.882 
22:20	32.4	32.4	32.4	74	25.1	3	5	248	0.00	29.882 
22:25	32.4	32.4	32.4	75	25.4	2	9	270	0.00	29.882 
22:30	32.5	27.7	32.5	75	25.5	5	9	270	0.00	29.883 
22:35	32.7	27.9	32.7	74	25.3	5	10	270	0.00	29.883 
22:40	32.7	28.9	32.7	74	25.3	4	11	270	0.00	29.883 
22:45	32.7	28.9	32.7	74	25.3	4	8	270	0.00	29.885 
22:50	32.7	32.7	32.7	74	25.3	3	7	248	0.00	29.885 
22:55	32.7	27.9	32.7	74	25.3	5	11	270	0.00	29.885 
23:00	32.7	28.9	32.7	74	25.3	4	11	270	0.00	29.894 
23:05	32.8	28.0	32.8	74	25.4	5	11	270	0.00	29.894 
23:10	32.8	29.0	32.8	74	25.4	4	11	248	0.00	29.894 
23:15	32.7	27.9	32.7	74	25.3	5	9	270	0.00	29.897 
23:20	32.7	28.9	32.7	75	25.7	4	6	248	0.00	29.897 
23:25	32.7	32.7	32.7	75	25.7	3	7	270	0.00	29.897 
23:30	32.7	28.9	32.7	75	25.7	4	9	248	0.00	29.898 
23:35	32.5	27.7	32.5	75	25.5	5	11	248	0.00	29.898 
23:40	32.5	27.7	32.5	75	25.5	5	11	248	0.00	29.898 
23:45	32.5	28.7	32.5	75	25.5	4	10	270	0.00	29.899 
23:50	32.5	28.7	32.5	75	25.5	4	8	270	0.00	29.899 
23:55	32.5	32.5	32.5	76	25.8	3	7	248	0.00	29.899 

CoCoRaHS
IN-AL-39
A2 Web Hosting
Creative Commons License
GoDaddy
search engine by freefind advanced

loaded 2018-12-19 10:23:22 • last modified 2010-11-18 10:43:29
Privacy PolicyDisclaimer
• wx.awcolley.com is powered by PmWiki v.2002016 •
• all content (unless otherwise noted) © 2018 A W Colley